X  Zamknij Lotniskowe dane METAR     LGRX Patras Araxos Agamemnon Airport
Temperatura
8°C Temperatura
-4°C Punkt rosy
43% Wilgotność



Wiatr
12 MPH
19 KM/H
5 M/S
10 KTS



90°
E
Warunki bieżące

Częściowe zachmurzenie Częściowe zachmurzenie
Ciśnienie 1029.92 (hPa) - 30.41 (inHg)
Widoczność 6.2 (mil) - 10 (km)
Lotnisko
Kod lotniska LGRX

Położenie: Patras Araxos Agamemnon Airport
Odległość: 108 (mi)

Metar:
LGRX 080920Z 09010KT 9999 FEW018 BKN070 08/M04 Q1030

Czas: 08-02-2023 09:20 EET